createdAt,value
2023-02-27T18:25:12.864Z,66.20
2023-02-27T18:25:54.654Z,66.60
2023-02-27T18:26:31.304Z,66.60
2023-02-27T18:27:05.849Z,66.50
2023-02-27T18:27:41.236Z,66.50
2023-02-27T18:28:16.148Z,66.40
2023-02-27T18:28:53.569Z,66.50
2023-02-27T18:29:27.447Z,66.60
2023-02-27T18:30:03.603Z,66.60
2023-02-27T18:30:42.536Z,66.60
2023-02-27T18:31:22.010Z,66.50
2023-02-27T18:31:55.871Z,66.70
2023-02-27T18:32:31.985Z,66.70
2023-02-27T18:33:05.996Z,66.70
2023-02-27T18:33:40.555Z,66.70
2023-02-27T18:34:14.600Z,66.70
2023-02-27T18:34:50.459Z,66.70
2023-02-27T18:35:25.708Z,66.80
2023-02-27T18:35:59.901Z,67.00
2023-02-27T18:36:35.669Z,67.10
2023-02-27T18:37:11.670Z,67.30
2023-02-27T18:37:45.708Z,67.90
2023-02-27T18:38:22.218Z,67.50
2023-02-27T18:38:57.441Z,67.70
2023-02-27T18:39:32.439Z,67.80
2023-02-27T18:40:06.837Z,67.80
2023-02-27T18:40:42.762Z,67.90
2023-02-27T18:41:17.447Z,68.10
2023-02-27T18:41:52.862Z,68.20
2023-02-27T18:42:26.826Z,68.40
2023-02-27T18:43:02.011Z,68.60
2023-02-27T18:43:35.749Z,68.70
2023-02-27T18:44:10.664Z,68.70
2023-02-27T18:44:45.583Z,68.70
2023-02-27T18:45:21.540Z,68.70
2023-02-27T18:45:55.514Z,68.70
2023-02-27T18:46:31.809Z,68.70
2023-02-27T18:47:06.327Z,68.70
2023-02-27T18:47:42.608Z,68.60
2023-02-27T18:48:17.987Z,68.60
2023-02-27T18:48:54.003Z,68.60
2023-02-27T18:49:28.003Z,68.60
2023-02-27T18:50:03.463Z,68.60
2023-02-27T18:50:38.736Z,68.80
2023-02-27T18:51:15.332Z,68.80
2023-02-27T18:51:49.722Z,68.80
2023-02-27T18:52:25.693Z,68.80
2023-02-27T18:53:01.079Z,68.90
2023-02-27T18:53:38.729Z,69.00
2023-02-27T18:54:14.137Z,69.10
2023-02-27T18:54:50.353Z,69.30
2023-02-27T18:55:24.859Z,69.30
2023-02-27T18:56:02.756Z,69.40
2023-02-27T18:56:37.678Z,69.30
2023-02-27T18:57:14.347Z,69.40
2023-02-27T18:57:51.666Z,69.50
2023-02-27T18:58:27.641Z,69.50
2023-02-27T18:59:02.767Z,69.40
2023-02-27T18:59:38.358Z,69.40
2023-02-27T19:00:14.931Z,69.40
2023-02-27T19:00:50.887Z,69.40
2023-02-27T19:01:27.163Z,69.50
2023-02-27T19:02:02.357Z,69.50
2023-02-27T19:02:39.869Z,69.50
2023-02-27T19:03:16.112Z,69.50
2023-02-27T19:03:50.825Z,69.60
2023-02-27T19:04:26.340Z,69.80
2023-02-27T19:05:02.198Z,70.00
2023-02-27T19:05:43.188Z,70.10
2023-02-27T19:06:18.393Z,70.30
2023-02-27T19:06:54.040Z,70.30
2023-02-27T19:07:29.630Z,70.30
2023-02-27T19:08:04.956Z,70.40
2023-02-27T19:08:41.368Z,70.50
2023-02-27T19:09:18.680Z,70.40
2023-02-27T19:09:54.841Z,70.40
2023-02-27T19:10:33.280Z,70.40
2023-02-27T19:11:08.387Z,70.50
2023-02-27T19:11:43.526Z,70.60
2023-02-27T19:12:18.023Z,70.60
2023-02-27T19:12:53.014Z,70.60
2023-02-27T19:13:27.767Z,70.60
2023-02-27T19:14:03.208Z,70.70
2023-02-27T19:14:37.873Z,70.70
2023-02-27T19:15:14.286Z,70.70
2023-02-27T19:15:47.747Z,70.70
2023-02-27T19:16:21.310Z,70.80
2023-02-27T19:16:57.236Z,70.80
2023-02-27T19:17:33.200Z,70.80
2023-02-27T19:18:08.724Z,70.80
2023-02-27T19:18:43.780Z,70.70
2023-02-27T19:19:19.443Z,70.70
2023-02-27T19:19:53.205Z,70.70
2023-02-27T19:20:29.364Z,70.70
2023-02-27T19:21:07.421Z,70.80
2023-02-27T19:21:43.347Z,71.00
2023-02-27T19:22:18.432Z,71.00
2023-02-27T19:22:54.161Z,71.00
2023-02-27T19:23:28.668Z,71.10
2023-02-27T19:24:05.046Z,71.10
2023-02-27T19:24:40.175Z,71.10
2023-02-27T19:25:15.722Z,71.10
2023-02-27T19:25:58.045Z,71.10
2023-02-27T19:26:34.744Z,71.10
2023-02-27T19:27:08.594Z,71.00
2023-02-27T19:27:45.411Z,71.10
2023-02-27T19:28:21.008Z,71.10
2023-02-27T19:28:57.898Z,71.20
2023-02-27T19:29:31.807Z,71.20
2023-02-27T19:30:10.445Z,71.10
2023-02-27T19:30:44.082Z,71.10
2023-02-27T19:31:19.338Z,71.00
2023-02-27T19:31:54.409Z,71.00
2023-02-27T19:32:28.583Z,71.10
2023-02-27T19:33:03.508Z,71.10
2023-02-27T19:33:40.084Z,71.20
2023-02-27T19:34:15.604Z,71.30
2023-02-27T19:34:51.071Z,71.40
2023-02-27T19:35:24.912Z,71.40
2023-02-27T19:35:59.517Z,71.40
2023-02-27T19:36:35.275Z,71.30
2023-02-27T19:37:10.824Z,71.20
2023-02-27T19:37:47.589Z,71.20
2023-02-27T19:38:21.389Z,71.20
2023-02-27T19:38:57.836Z,71.20
2023-02-27T19:39:33.682Z,71.10
2023-02-27T19:40:12.490Z,71.30
2023-02-27T19:40:46.942Z,71.30
2023-02-27T19:41:22.239Z,71.30
2023-02-27T19:41:57.235Z,71.40
2023-02-27T19:42:35.083Z,71.30
2023-02-27T19:43:08.594Z,71.80
2023-02-27T19:43:44.609Z,71.30
2023-02-27T19:44:18.759Z,71.30
2023-02-27T19:44:54.914Z,71.30
2023-02-27T19:45:29.619Z,71.40
2023-02-27T19:46:05.414Z,71.50
2023-02-27T19:46:41.699Z,71.50
2023-02-27T19:47:15.608Z,71.50
2023-02-27T19:47:50.079Z,71.50
2023-02-27T19:48:26.131Z,71.50
2023-02-27T19:49:05.228Z,71.50
2023-02-27T19:49:40.780Z,71.50
2023-02-27T19:50:16.402Z,71.50
2023-02-27T19:50:50.296Z,71.60
2023-02-27T19:51:24.733Z,71.60
2023-02-27T19:52:00.618Z,71.60
2023-02-27T19:52:36.497Z,71.70
2023-02-27T19:53:12.094Z,71.70
2023-02-27T19:53:48.958Z,71.70
2023-02-27T19:54:24.800Z,71.80
2023-02-27T19:55:00.100Z,71.70
2023-02-27T19:55:34.622Z,71.80
2023-02-27T19:56:12.720Z,71.80
2023-02-27T19:56:47.484Z,71.80
2023-02-27T19:57:22.961Z,71.80
2023-02-27T19:57:57.610Z,71.80
2023-02-27T19:58:31.939Z,71.90
2023-02-27T19:59:06.497Z,71.90
2023-02-27T19:59:41.159Z,71.90
2023-02-27T20:00:18.326Z,71.90
2023-02-27T20:00:52.218Z,72.00
2023-02-27T20:01:27.543Z,72.00
2023-02-27T20:02:03.894Z,72.00
2023-02-27T20:02:37.236Z,72.00
2023-02-27T20:03:12.668Z,71.90
2023-02-27T20:03:46.378Z,71.90
2023-02-27T20:04:19.970Z,72.00
2023-02-27T20:04:55.465Z,72.00
2023-02-27T20:05:30.396Z,72.00
2023-02-27T20:06:07.616Z,72.00
2023-02-27T20:06:42.377Z,72.10
2023-02-27T20:07:19.656Z,72.10
2023-02-27T20:07:53.647Z,72.20
2023-02-27T20:08:30.764Z,72.20
2023-02-27T20:09:05.008Z,72.30
2023-02-27T20:09:40.309Z,72.30
2023-02-27T20:10:16.290Z,72.30
2023-02-27T20:10:57.693Z,72.30
2023-02-27T20:11:36.100Z,72.30
2023-02-27T20:12:09.944Z,72.40
2023-02-27T20:12:44.662Z,72.50
2023-02-27T20:13:17.658Z,72.50
2023-02-27T20:13:53.451Z,72.50
2023-02-27T20:14:27.740Z,72.50
2023-02-27T20:15:09.350Z,72.50
2023-02-27T20:15:44.911Z,72.50
2023-02-27T20:16:19.906Z,72.50
2023-02-27T20:16:55.005Z,72.50
2023-02-27T20:17:30.630Z,72.50
2023-02-27T20:18:07.682Z,72.50
2023-02-27T20:18:41.818Z,72.50
2023-02-27T20:19:18.689Z,72.40
2023-02-27T20:19:53.174Z,72.50
2023-02-27T20:20:30.101Z,72.50
2023-02-27T20:21:07.948Z,72.50
2023-02-27T20:21:43.559Z,72.50
2023-02-27T20:22:18.664Z,72.50
2023-02-27T20:22:54.184Z,72.50
2023-02-27T20:23:30.270Z,72.60
2023-02-27T20:24:05.384Z,72.50
2023-02-27T20:24:41.118Z,72.60
2023-02-27T20:25:15.982Z,72.60
2023-02-27T20:25:51.503Z,72.60
2023-02-27T20:26:28.398Z,72.50
2023-02-27T20:27:03.987Z,72.60
2023-02-27T20:27:37.239Z,72.50
2023-02-27T20:28:11.081Z,72.50
2023-02-27T20:28:46.268Z,72.50
2023-02-27T20:29:22.850Z,72.50
2023-02-27T20:29:58.779Z,72.80
2023-02-27T20:30:32.774Z,72.70
2023-02-27T20:31:10.762Z,72.80
2023-02-27T20:31:47.120Z,72.70
2023-02-27T20:32:23.114Z,73.00
2023-02-27T20:32:58.940Z,73.00
2023-02-27T20:33:33.263Z,73.00
2023-02-27T20:34:08.116Z,73.10
2023-02-27T20:34:42.089Z,73.10
2023-02-27T20:35:17.636Z,73.10
2023-02-27T20:35:52.078Z,73.20
2023-02-27T20:36:26.975Z,73.20
2023-02-27T20:37:03.715Z,73.30
2023-02-27T20:37:39.624Z,73.30
2023-02-27T20:38:17.064Z,73.30
2023-02-27T20:38:51.657Z,73.20
2023-02-27T20:39:25.453Z,73.20
2023-02-27T20:40:00.163Z,73.20
2023-02-27T20:40:37.363Z,73.20
2023-02-27T20:41:12.660Z,73.10
2023-02-27T20:41:47.531Z,73.20
2023-02-27T20:42:22.340Z,73.10
2023-02-27T20:42:58.143Z,73.10
2023-02-27T20:43:31.816Z,73.00
2023-02-27T20:44:09.365Z,73.00
2023-02-27T20:44:45.668Z,72.90
2023-02-27T20:45:20.772Z,72.90
2023-02-27T20:45:54.231Z,73.00
2023-02-27T20:46:30.463Z,73.10
2023-02-27T20:47:05.749Z,73.10
2023-02-27T20:47:45.012Z,73.10
2023-02-27T20:48:20.095Z,73.10
2023-02-27T20:48:53.925Z,73.10
2023-02-27T20:49:29.679Z,73.20
2023-02-27T20:50:04.281Z,73.10
2023-02-27T20:50:38.796Z,73.20
2023-02-27T20:51:15.802Z,73.30
2023-02-27T20:51:48.676Z,73.30
2023-02-27T20:52:22.453Z,73.40
2023-02-27T20:52:56.542Z,73.50
2023-02-27T20:53:30.830Z,73.50
2023-02-27T20:54:08.258Z,73.50
2023-02-27T20:54:42.228Z,73.70
2023-02-27T20:55:17.530Z,73.70
2023-02-27T20:55:54.938Z,73.70
2023-02-27T20:56:31.036Z,73.70
2023-02-27T20:57:10.260Z,73.80
2023-02-27T20:57:43.733Z,73.70
2023-02-27T20:58:17.978Z,73.80
2023-02-27T20:58:53.086Z,73.70
2023-02-27T20:59:26.730Z,73.80
2023-02-27T21:00:02.411Z,73.80
2023-02-27T21:00:36.803Z,73.80
2023-02-27T21:01:11.280Z,73.80
2023-02-27T21:01:51.992Z,73.90
2023-02-27T21:02:26.953Z,74.00
2023-02-27T21:03:03.207Z,74.00
2023-02-27T21:03:39.684Z,74.00
2023-02-27T21:04:14.626Z,74.00
2023-02-27T21:04:51.415Z,74.00
2023-02-27T21:05:26.265Z,74.10
2023-02-27T21:06:00.993Z,74.10
2023-02-27T21:06:35.553Z,74.20
2023-02-27T21:07:11.534Z,74.20
2023-02-27T21:07:45.946Z,74.20
2023-02-27T21:08:20.455Z,74.30
2023-02-27T21:08:57.041Z,74.30
2023-02-27T21:09:31.593Z,74.30
2023-02-27T21:10:07.216Z,74.30
2023-02-27T21:10:41.539Z,74.40
2023-02-27T21:11:18.502Z,74.40
2023-02-27T21:11:53.621Z,74.40
2023-02-27T21:12:28.731Z,74.50
2023-02-27T21:13:04.981Z,74.50
2023-02-27T21:13:41.600Z,74.60
2023-02-27T21:14:15.212Z,74.60
2023-02-27T21:14:51.663Z,74.60
2023-02-27T21:15:26.143Z,74.70
2023-02-27T21:16:02.605Z,74.80
2023-02-27T21:16:37.352Z,74.80
2023-02-27T21:17:13.120Z,74.80
2023-02-27T21:17:47.451Z,74.80
2023-02-27T21:18:20.889Z,74.90
2023-02-27T21:18:56.632Z,74.90
2023-02-27T21:19:30.747Z,75.00
2023-02-27T21:20:06.962Z,75.10
2023-02-27T21:20:42.232Z,75.10
2023-02-27T21:21:19.148Z,75.10
2023-02-27T21:21:53.901Z,75.00
2023-02-27T21:22:29.069Z,75.10
2023-02-27T21:23:04.188Z,75.00
2023-02-27T21:23:41.665Z,75.00
2023-02-27T21:24:15.697Z,74.90
2023-02-27T21:24:54.504Z,74.90
2023-02-27T21:25:28.605Z,74.90
2023-02-27T21:26:06.758Z,75.00
2023-02-27T21:26:42.618Z,75.10
2023-02-27T21:27:20.450Z,75.10
2023-02-27T21:27:54.154Z,75.10
2023-02-27T21:28:29.144Z,75.10
2023-02-27T21:29:09.075Z,75.30
2023-02-27T21:29:43.046Z,75.20
2023-02-27T21:30:18.579Z,75.20
2023-02-27T21:30:54.747Z,75.10
2023-02-27T21:31:34.615Z,75.10
2023-02-27T21:32:10.368Z,75.10
2023-02-27T21:32:44.863Z,75.10
2023-02-27T21:33:20.351Z,75.10
2023-02-27T21:34:00.188Z,75.20
2023-02-27T21:34:37.299Z,75.40
2023-02-27T21:35:12.326Z,75.50
2023-02-27T21:35:46.672Z,75.60
2023-02-27T21:36:27.484Z,75.60
2023-02-27T21:37:03.381Z,75.70
2023-02-27T21:37:38.460Z,75.80
2023-02-27T21:38:13.367Z,75.70
2023-02-27T21:38:47.761Z,75.70
2023-02-27T21:39:26.357Z,75.60
2023-02-27T21:40:01.158Z,75.60
2023-02-27T21:40:34.857Z,75.50
2023-02-27T21:41:13.014Z,75.50
2023-02-27T21:41:49.875Z,75.40
2023-02-27T21:42:24.391Z,75.40
2023-02-27T21:42:58.371Z,75.40
2023-02-27T21:43:32.054Z,75.40
2023-02-27T21:44:09.593Z,75.30
2023-02-27T21:44:47.213Z,75.30
2023-02-27T21:45:21.341Z,75.30
2023-02-27T21:45:58.855Z,75.30
2023-02-27T21:46:33.954Z,75.30
2023-02-27T21:47:10.729Z,75.30
2023-02-27T21:47:44.132Z,75.30
2023-02-27T21:48:19.556Z,75.30
2023-02-27T21:48:54.560Z,75.40
2023-02-27T21:49:31.867Z,75.40
2023-02-27T21:50:14.634Z,75.50
2023-02-27T21:50:50.673Z,75.60
2023-02-27T21:51:38.835Z,75.60
2023-02-27T21:52:14.084Z,75.60
2023-02-27T21:52:47.968Z,75.60
2023-02-27T21:53:22.800Z,75.70
2023-02-27T21:53:57.207Z,75.70
2023-02-27T21:54:33.289Z,75.80
2023-02-27T21:55:10.117Z,75.80
2023-02-27T21:55:44.172Z,75.70
2023-02-27T21:56:18.573Z,75.70
2023-02-27T21:56:53.910Z,75.70
2023-02-27T21:57:32.238Z,75.80
2023-02-27T21:58:09.101Z,75.80
2023-02-27T21:58:42.954Z,76.00
2023-02-27T21:59:19.134Z,76.10
2023-02-27T21:59:53.121Z,76.10
2023-02-27T22:00:30.288Z,76.00
2023-02-27T22:01:15.766Z,76.00
2023-02-27T22:01:51.108Z,75.90
2023-02-27T22:02:25.189Z,75.90
2023-02-27T22:03:00.920Z,75.90
2023-02-27T22:03:35.624Z,75.90
2023-02-27T22:04:09.491Z,75.90
2023-02-27T22:04:44.487Z,76.00
2023-02-27T22:05:20.474Z,76.00
2023-02-27T22:05:56.265Z,76.00
2023-02-27T22:06:34.472Z,76.00
2023-02-27T22:07:09.889Z,76.00
2023-02-27T22:07:45.472Z,76.00
2023-02-27T22:08:20.587Z,76.10
2023-02-27T22:08:55.701Z,76.10
2023-02-27T22:09:31.224Z,76.10
2023-02-27T22:10:05.698Z,76.20
2023-02-27T22:10:46.492Z,76.30
2023-02-27T22:11:22.316Z,76.30
2023-02-27T22:11:56.933Z,76.30
2023-02-27T22:12:31.943Z,76.30
2023-02-27T22:13:07.000Z,76.30
2023-02-27T22:13:42.396Z,76.30
2023-02-27T22:14:15.325Z,76.30
2023-02-27T22:14:50.481Z,76.40
2023-02-27T22:15:24.493Z,76.40
2023-02-27T22:16:04.135Z,76.60
2023-02-27T22:16:39.812Z,76.60
2023-02-27T22:17:13.135Z,76.70
2023-02-27T22:17:47.959Z,76.80
2023-02-27T22:18:22.758Z,76.80
2023-02-27T22:18:57.120Z,76.80
2023-02-27T22:19:31.812Z,77.00
2023-02-27T22:20:07.311Z,76.90
2023-02-27T22:20:42.367Z,77.00
2023-02-27T22:21:19.312Z,77.00
2023-02-27T22:21:53.732Z,77.00
2023-02-27T22:22:27.628Z,77.00
2023-02-27T22:23:02.585Z,77.10
2023-02-27T22:23:37.363Z,77.10
2023-02-27T22:24:09.930Z,77.20
2023-02-27T22:24:44.366Z,77.20
2023-02-27T22:25:19.654Z,77.20
2023-02-27T22:26:00.884Z,77.30
2023-02-27T22:26:35.114Z,77.30
2023-02-27T22:27:10.593Z,77.30
2023-02-27T22:27:45.562Z,77.40
2023-02-27T22:28:20.087Z,77.30
2023-02-27T22:28:56.843Z,77.40
2023-02-27T22:29:32.378Z,77.30
2023-02-27T22:30:08.579Z,77.30
2023-02-27T22:30:43.054Z,77.40
2023-02-27T22:31:21.045Z,77.50
2023-02-27T22:31:54.945Z,77.50
2023-02-27T22:32:30.541Z,77.60
2023-02-27T22:33:04.655Z,77.70
2023-02-27T22:33:39.256Z,77.70
2023-02-27T22:34:18.201Z,77.70
2023-02-27T22:34:52.751Z,77.70
2023-02-27T22:35:26.999Z,77.70
2023-02-27T22:36:05.977Z,77.70
2023-02-27T22:36:42.257Z,77.80
2023-02-27T22:37:19.848Z,77.80
2023-02-27T22:37:53.286Z,77.90
2023-02-27T22:38:29.696Z,78.00
2023-02-27T22:39:04.947Z,78.10
2023-02-27T22:39:40.022Z,78.00
2023-02-27T22:40:16.935Z,78.10
2023-02-27T22:40:51.672Z,78.20
2023-02-27T22:41:28.787Z,78.20
2023-02-27T22:42:04.331Z,78.10
2023-02-27T22:42:39.674Z,78.10
2023-02-27T22:43:14.486Z,78.10
2023-02-27T22:43:50.258Z,78.10
2023-02-27T22:44:23.925Z,78.20
2023-02-27T22:44:58.301Z,78.20
2023-02-27T22:45:33.234Z,78.10
2023-02-27T22:46:08.173Z,78.20
2023-02-27T22:46:44.298Z,78.30
2023-02-27T22:47:19.304Z,78.20
2023-02-27T22:47:54.245Z,78.30
2023-02-27T22:48:28.213Z,78.20
2023-02-27T22:49:05.948Z,78.30
2023-02-27T22:49:39.358Z,78.30
2023-02-27T22:50:16.759Z,78.30
2023-02-27T22:50:59.316Z,78.30
2023-02-27T22:51:34.948Z,78.20
2023-02-27T22:52:09.803Z,78.30
2023-02-27T22:52:44.674Z,78.30
2023-02-27T22:53:19.214Z,78.30
2023-02-27T22:53:53.783Z,78.20
2023-02-27T22:54:28.361Z,78.20
2023-02-27T22:55:03.580Z,78.20
2023-02-27T22:55:39.278Z,78.30
2023-02-27T22:56:16.371Z,78.40
2023-02-27T22:56:52.354Z,78.40
2023-02-27T22:57:27.341Z,78.40
2023-02-27T22:58:02.748Z,78.40
2023-02-27T22:58:39.035Z,78.50
2023-02-27T22:59:12.435Z,78.50
2023-02-27T22:59:48.249Z,78.60
2023-02-27T23:00:23.077Z,78.60
2023-02-27T23:00:57.162Z,78.70
2023-02-27T23:01:34.013Z,78.70
2023-02-27T23:02:09.291Z,78.70
2023-02-27T23:02:44.245Z,78.60
2023-02-27T23:03:18.098Z,78.60
2023-02-27T23:03:53.912Z,78.60
2023-02-27T23:04:29.910Z,78.50
2023-02-27T23:05:03.965Z,78.40
2023-02-27T23:05:44.078Z,78.30
2023-02-27T23:06:20.496Z,78.20
2023-02-27T23:06:56.639Z,78.20
2023-02-27T23:07:29.935Z,78.10
2023-02-27T23:08:05.005Z,78.10
2023-02-27T23:08:39.480Z,78.10
2023-02-27T23:09:15.515Z,78.00
2023-02-27T23:09:49.933Z,78.00
2023-02-27T23:10:23.923Z,78.00
2023-02-27T23:10:57.682Z,78.00
2023-02-27T23:11:30.809Z,78.00
2023-02-27T23:12:07.501Z,78.00
2023-02-27T23:12:41.421Z,78.00
